Terminal Aerodrome Forecast
Issued by NWS

Home | Current Version | Previous Version | Graphics & Text | Print | Product List | Glossary On
Versions: 1 2 3 4 5 6 7 8 9 10 11 12 13 14 15 16 17 18 19 20 21
000
FTUS43 KIWX 190528
TAFSBN
TAF
KSBN 190528Z 1906/2006 15013KT P6SM BKN250 WS020/19050KT
     FM190800 18009KT P6SM -RA BKN050 WS020/23050KT
     FM191300 17006KT 1SM RA BR OVC003 WS020/24050KT
      TEMPO 1913/1917 1/2SM -RA FG VV001
     FM192000 20016G24KT 2SM -RA BR OVC006 WS020/22055KT=

USA.gov is the U.S. government's official web portal to all federal, state and local government web resources and services.